QTR15G OERK-OBBI
Flight info
| Callsign | QTR15G |
|---|---|
| Flight time | 0h 52m |
| Altitude | 33000 |
| Route | ALTAV H976 MUSRI L604 KFA M691 LADNA |
| Aircraft | A20N/M-SDE2E3FGHIRWXY/LB1 |
Departure
| Time | 2026-04-30 12:43 |
|---|---|
| Airport | King Khalid International Airport (OERK) |
Arrival
| Time | 2026-04-30 13:35 |
|---|---|
| Airport | Bahrain International Airport (OBBI) |
| Time | Latitude | Longitude | Altitude | Speed | Heading |
|---|---|---|---|---|---|
| 2026-04-30 11:53 | 24.96220 | 46.70298 | 2040 ft | 0 kts | 200° |
| 2026-04-30 12:32 | 24.96235 | 46.70304 | 2044 ft | 2 kts | 202° |
| 2026-04-30 12:32 | 24.96251 | 46.70311 | 2040 ft | 2 kts | 200° |
| 2026-04-30 12:32 | 24.96267 | 46.70317 | 2040 ft | 2 kts | 199° |
| 2026-04-30 12:32 | 24.96282 | 46.70323 | 2040 ft | 2 kts | 199° |
| 2026-04-30 12:33 | 24.96298 | 46.70329 | 2040 ft | 2 kts | 198° |
| 2026-04-30 12:33 | 24.96314 | 46.70334 | 2040 ft | 2 kts | 195° |
| 2026-04-30 12:33 | 24.96330 | 46.70339 | 2040 ft | 2 kts | 205° |
| 2026-04-30 12:33 | 24.96342 | 46.70351 | 2040 ft | 2 kts | 243° |
| 2026-04-30 12:34 | 24.96347 | 46.70368 | 2041 ft | 2 kts | 277° |
| 2026-04-30 12:34 | 24.96340 | 46.70384 | 2040 ft | 2 kts | 310° |
| 2026-04-30 12:34 | 24.96329 | 46.70398 | 2041 ft | 2 kts | 320° |
| 2026-04-30 12:34 | 24.96316 | 46.70408 | 2045 ft | 2 kts | 332° |
| 2026-04-30 12:35 | 24.96312 | 46.70410 | 2042 ft | 0 kts | 334° |
| 2026-04-30 12:37 | 24.96319 | 46.70406 | 2046 ft | 2 kts | 334° |
| 2026-04-30 12:37 | 24.96332 | 46.70400 | 2041 ft | 1 kts | 337° |
| 2026-04-30 12:38 | 24.96348 | 46.70400 | 2046 ft | 3 kts | 12° |
| 2026-04-30 12:38 | 24.96372 | 46.70420 | 2039 ft | 6 kts | 37° |
| 2026-04-30 12:38 | 24.96405 | 46.70468 | 2045 ft | 10 kts | 63° |
| 2026-04-30 12:38 | 24.96439 | 46.70542 | 2039 ft | 12 kts | 62° |
| 2026-04-30 12:39 | 24.96498 | 46.70603 | 2041 ft | 12 kts | 11° |
| 2026-04-30 12:39 | 24.96575 | 46.70567 | 2041 ft | 14 kts | 331° |
| 2026-04-30 12:39 | 24.96634 | 46.70530 | 2042 ft | 16 kts | 329° |
| 2026-04-30 12:39 | 24.96737 | 46.70461 | 2041 ft | 19 kts | 330° |
| 2026-04-30 12:40 | 24.96857 | 46.70385 | 2045 ft | 20 kts | 330° |
| 2026-04-30 12:40 | 24.96947 | 46.70328 | 2042 ft | 11 kts | 330° |
| 2026-04-30 12:40 | 24.97010 | 46.70329 | 2042 ft | 10 kts | 36° |
| 2026-04-30 12:40 | 24.97056 | 46.70397 | 2042 ft | 12 kts | 59° |
| 2026-04-30 12:41 | 24.97102 | 46.70482 | 2045 ft | 13 kts | 59° |
| 2026-04-30 12:41 | 24.97138 | 46.70556 | 2043 ft | 6 kts | 82° |
| 2026-04-30 12:41 | 24.97113 | 46.70575 | 2042 ft | 6 kts | 151° |
| 2026-04-30 12:41 | 24.97084 | 46.70590 | 2044 ft | 1 kts | 154° |
| 2026-04-30 12:42 | 24.97004 | 46.70643 | 2041 ft | 33 kts | 157° |
| 2026-04-30 12:42 | 24.96599 | 46.70898 | 2040 ft | 99 kts | 149° |
| 2026-04-30 12:42 | 24.95842 | 46.71372 | 2034 ft | 149 kts | 150° |
| 2026-04-30 12:42 | 24.94544 | 46.72177 | 2559 ft | 164 kts | 149° |
| 2026-04-30 12:43 | 24.93842 | 46.72580 | 2959 ft | 166 kts | 147° |
| 2026-04-30 12:43 | 24.92877 | 46.73237 | 3602 ft | 158 kts | 138° |
| 2026-04-30 12:43 | 24.92057 | 46.74052 | 4063 ft | 166 kts | 132° |
| 2026-04-30 12:43 | 24.91193 | 46.75002 | 4390 ft | 185 kts | 132° |
| 2026-04-30 12:44 | 24.90205 | 46.76046 | 4780 ft | 208 kts | 135° |
| 2026-04-30 12:44 | 24.89066 | 46.77168 | 5158 ft | 232 kts | 135° |
| 2026-04-30 12:44 | 24.88091 | 46.78665 | 5590 ft | 252 kts | 109° |
| 2026-04-30 12:44 | 24.87891 | 46.80622 | 6196 ft | 267 kts | 82° |
| 2026-04-30 12:45 | 24.88593 | 46.82549 | 6876 ft | 280 kts | 54° |
| 2026-04-30 12:45 | 24.90075 | 46.83990 | 7600 ft | 292 kts | 28° |
| 2026-04-30 12:45 | 24.92015 | 46.84741 | 8399 ft | 300 kts | 14° |
| 2026-04-30 12:45 | 24.94059 | 46.85321 | 9240 ft | 305 kts | 15° |
| 2026-04-30 12:46 | 24.96094 | 46.86034 | 10142 ft | 310 kts | 18° |
| 2026-04-30 12:46 | 24.98162 | 46.86927 | 10560 ft | 332 kts | 21° |
| 2026-04-30 12:46 | 25.00347 | 46.88005 | 10877 ft | 355 kts | 24° |
| 2026-04-30 12:46 | 25.02626 | 46.89201 | 11445 ft | 366 kts | 24° |
| 2026-04-30 12:47 | 25.04935 | 46.90437 | 12242 ft | 371 kts | 24° |
| 2026-04-30 12:47 | 25.07278 | 46.91692 | 13019 ft | 378 kts | 23° |
| 2026-04-30 12:47 | 25.09658 | 46.92960 | 13818 ft | 383 kts | 23° |
| 2026-04-30 12:47 | 25.12071 | 46.94242 | 14552 ft | 387 kts | 22° |
| 2026-04-30 12:48 | 25.14513 | 46.95534 | 15273 ft | 391 kts | 22° |
| 2026-04-30 12:48 | 25.16977 | 46.96838 | 15955 ft | 396 kts | 22° |
| 2026-04-30 12:48 | 25.19471 | 46.98157 | 16617 ft | 400 kts | 22° |
| 2026-04-30 12:48 | 25.21996 | 46.99497 | 17289 ft | 405 kts | 23° |
| 2026-04-30 12:49 | 25.24465 | 47.01050 | 17905 ft | 411 kts | 27° |
| 2026-04-30 12:49 | 25.26946 | 47.02646 | 18514 ft | 415 kts | 27° |
| 2026-04-30 12:49 | 25.29454 | 47.04262 | 19076 ft | 419 kts | 27° |
| 2026-04-30 12:49 | 25.31976 | 47.05899 | 19670 ft | 422 kts | 27° |
| 2026-04-30 12:50 | 25.34515 | 47.07555 | 20224 ft | 426 kts | 27° |
| 2026-04-30 12:50 | 25.37077 | 47.09232 | 20776 ft | 430 kts | 27° |
| 2026-04-30 12:50 | 25.39664 | 47.10929 | 21348 ft | 434 kts | 27° |
| 2026-04-30 12:50 | 25.42199 | 47.12778 | 21914 ft | 441 kts | 37° |
| 2026-04-30 12:51 | 25.44350 | 47.15242 | 22453 ft | 450 kts | 50° |
| 2026-04-30 12:51 | 25.46251 | 47.18014 | 23005 ft | 454 kts | 51° |
| 2026-04-30 12:51 | 25.48141 | 47.20839 | 23561 ft | 459 kts | 52° |
| 2026-04-30 12:51 | 25.50040 | 47.23696 | 24000 ft | 463 kts | 52° |
| 2026-04-30 12:52 | 25.51960 | 47.26584 | 24428 ft | 468 kts | 52° |
| 2026-04-30 12:52 | 25.53903 | 47.29504 | 24837 ft | 473 kts | 52° |
| 2026-04-30 12:52 | 25.55836 | 47.32407 | 25246 ft | 478 kts | 52° |
| 2026-04-30 12:52 | 25.57806 | 47.35365 | 25639 ft | 482 kts | 52° |
| 2026-04-30 12:53 | 25.59850 | 47.38436 | 26038 ft | 487 kts | 52° |
| 2026-04-30 12:53 | 25.61873 | 47.41477 | 26413 ft | 491 kts | 52° |
| 2026-04-30 12:53 | 25.63909 | 47.44538 | 26783 ft | 496 kts | 52° |
| 2026-04-30 12:53 | 25.65965 | 47.47632 | 27146 ft | 500 kts | 52° |
| 2026-04-30 12:54 | 25.68037 | 47.50752 | 27504 ft | 504 kts | 52° |
| 2026-04-30 12:54 | 25.70123 | 47.53895 | 27856 ft | 508 kts | 52° |
| 2026-04-30 12:54 | 25.72224 | 47.57064 | 28199 ft | 512 kts | 52° |
| 2026-04-30 12:54 | 25.74340 | 47.60256 | 28528 ft | 516 kts | 52° |
| 2026-04-30 12:55 | 25.76469 | 47.63471 | 28842 ft | 520 kts | 52° |
| 2026-04-30 12:55 | 25.78615 | 47.66713 | 29163 ft | 523 kts | 52° |
| 2026-04-30 12:55 | 25.80738 | 47.69923 | 29451 ft | 527 kts | 52° |
| 2026-04-30 12:55 | 25.82952 | 47.73274 | 29755 ft | 531 kts | 52° |
| 2026-04-30 12:56 | 25.85120 | 47.76556 | 30056 ft | 534 kts | 52° |
| 2026-04-30 12:56 | 25.87325 | 47.79897 | 30312 ft | 537 kts | 52° |
| 2026-04-30 12:56 | 25.89539 | 47.83255 | 30574 ft | 541 kts | 52° |
| 2026-04-30 12:56 | 25.91772 | 47.86644 | 30675 ft | 548 kts | 52° |
| 2026-04-30 12:57 | 25.96322 | 47.93555 | 30906 ft | 557 kts | 52° |
| 2026-04-30 12:57 | 26.00920 | 48.00555 | 30921 ft | 556 kts | 52° |
| 2026-04-30 12:58 | 26.05476 | 48.07498 | 30918 ft | 556 kts | 52° |
| 2026-04-30 12:58 | 26.09973 | 48.14512 | 30914 ft | 558 kts | 57° |
| 2026-04-30 12:59 | 26.11755 | 48.18352 | 30911 ft | 558 kts | 68° |
| 2026-04-30 12:59 | 26.12945 | 48.22413 | 30913 ft | 558 kts | 76° |
| 2026-04-30 12:59 | 26.14994 | 48.30733 | 30908 ft | 558 kts | 76° |
| 2026-04-30 13:00 | 26.17017 | 48.39083 | 30905 ft | 558 kts | 76° |
| 2026-04-30 13:00 | 26.19027 | 48.47423 | 30899 ft | 557 kts | 76° |
| 2026-04-30 13:01 | 26.21033 | 48.55766 | 30895 ft | 557 kts | 76° |
| 2026-04-30 13:01 | 26.23061 | 48.64228 | 30892 ft | 557 kts | 76° |
| 2026-04-30 13:02 | 26.25053 | 48.72561 | 30888 ft | 557 kts | 76° |
| 2026-04-30 13:02 | 26.27042 | 48.80903 | 30885 ft | 557 kts | 77° |
| 2026-04-30 13:03 | 26.29026 | 48.89243 | 30778 ft | 554 kts | 77° |
| 2026-04-30 13:03 | 26.30007 | 48.93378 | 30376 ft | 550 kts | 77° |
| 2026-04-30 13:03 | 26.30983 | 48.97493 | 29743 ft | 547 kts | 76° |
| 2026-04-30 13:04 | 26.31949 | 49.01576 | 29138 ft | 540 kts | 76° |
| 2026-04-30 13:04 | 26.32886 | 49.05542 | 28546 ft | 533 kts | 76° |
| 2026-04-30 13:04 | 26.33826 | 49.09523 | 27952 ft | 526 kts | 76° |
| 2026-04-30 13:04 | 26.34751 | 49.13449 | 27375 ft | 520 kts | 76° |
| 2026-04-30 13:05 | 26.35660 | 49.17313 | 26794 ft | 513 kts | 76° |
| 2026-04-30 13:05 | 26.36557 | 49.21133 | 26238 ft | 507 kts | 76° |
| 2026-04-30 13:05 | 26.37445 | 49.24914 | 25691 ft | 500 kts | 76° |
| 2026-04-30 13:06 | 26.39183 | 49.32333 | 24611 ft | 488 kts | 76° |
| 2026-04-30 13:06 | 26.40033 | 49.35971 | 24089 ft | 482 kts | 76° |
| 2026-04-30 13:06 | 26.40874 | 49.39572 | 23575 ft | 476 kts | 76° |
| 2026-04-30 13:06 | 26.41704 | 49.43131 | 22988 ft | 471 kts | 76° |
| 2026-04-30 13:07 | 26.42526 | 49.46657 | 22323 ft | 466 kts | 76° |
| 2026-04-30 13:07 | 26.43338 | 49.50144 | 21689 ft | 462 kts | 76° |
| 2026-04-30 13:07 | 26.44141 | 49.53601 | 21071 ft | 458 kts | 76° |
| 2026-04-30 13:07 | 26.44938 | 49.57029 | 20479 ft | 454 kts | 76° |
| 2026-04-30 13:08 | 26.45715 | 49.60381 | 19893 ft | 450 kts | 76° |
| 2026-04-30 13:08 | 26.46493 | 49.63738 | 19310 ft | 446 kts | 76° |
| 2026-04-30 13:08 | 26.47268 | 49.67090 | 18736 ft | 442 kts | 76° |
| 2026-04-30 13:08 | 26.48033 | 49.70398 | 18190 ft | 438 kts | 76° |
| 2026-04-30 13:09 | 26.48794 | 49.73690 | 17555 ft | 435 kts | 76° |
| 2026-04-30 13:09 | 26.49409 | 49.76972 | 16970 ft | 429 kts | 83° |
| 2026-04-30 13:09 | 26.49606 | 49.80276 | 16389 ft | 423 kts | 92° |
| 2026-04-30 13:09 | 26.49446 | 49.83540 | 15813 ft | 418 kts | 96° |
| 2026-04-30 13:10 | 26.49258 | 49.86762 | 15264 ft | 414 kts | 96° |
| 2026-04-30 13:10 | 26.49082 | 49.89955 | 14726 ft | 410 kts | 96° |
| 2026-04-30 13:10 | 26.48912 | 49.93111 | 14216 ft | 405 kts | 96° |
| 2026-04-30 13:10 | 26.48741 | 49.96239 | 13692 ft | 402 kts | 96° |
| 2026-04-30 13:11 | 26.48571 | 49.99314 | 13394 ft | 391 kts | 96° |
| 2026-04-30 13:11 | 26.48405 | 50.02315 | 12949 ft | 385 kts | 96° |
| 2026-04-30 13:11 | 26.48239 | 50.05280 | 12451 ft | 381 kts | 96° |
| 2026-04-30 13:11 | 26.48072 | 50.08216 | 11954 ft | 378 kts | 96° |
| 2026-04-30 13:12 | 26.47907 | 50.11134 | 11448 ft | 375 kts | 96° |
| 2026-04-30 13:12 | 26.47743 | 50.14017 | 10940 ft | 370 kts | 95° |
| 2026-04-30 13:12 | 26.47580 | 50.16871 | 10274 ft | 364 kts | 95° |
| 2026-04-30 13:13 | 26.47279 | 50.22216 | 9882 ft | 326 kts | 95° |
| 2026-04-30 13:13 | 26.47139 | 50.24691 | 9530 ft | 315 kts | 95° |
| 2026-04-30 13:13 | 26.46903 | 50.28715 | 8583 ft | 310 kts | 95° |
| 2026-04-30 13:14 | 26.46755 | 50.31102 | 8033 ft | 306 kts | 98° |
| 2026-04-30 13:14 | 26.46118 | 50.33325 | 7462 ft | 299 kts | 123° |
| 2026-04-30 13:14 | 26.44547 | 50.35578 | 6763 ft | 295 kts | 134° |
| 2026-04-30 13:15 | 26.43165 | 50.37149 | 6221 ft | 292 kts | 139° |
| 2026-04-30 13:15 | 26.40336 | 50.40401 | 5011 ft | 293 kts | 127° |
| 2026-04-30 13:15 | 26.39166 | 50.42258 | 4388 ft | 293 kts | 121° |
| 2026-04-30 13:16 | 26.38087 | 50.44182 | 3754 ft | 293 kts | 120° |
| 2026-04-30 13:16 | 26.36993 | 50.46078 | 3269 ft | 288 kts | 119° |
| 2026-04-30 13:16 | 26.35931 | 50.47934 | 2876 ft | 280 kts | 119° |
| 2026-04-30 13:17 | 26.33039 | 50.50359 | 2983 ft | 261 kts | 172° |
| 2026-04-30 13:17 | 26.31251 | 50.50246 | 3008 ft | 260 kts | 192° |
| 2026-04-30 13:17 | 26.28035 | 50.48760 | 3007 ft | 250 kts | 231° |
| 2026-04-30 13:18 | 26.26879 | 50.47299 | 3003 ft | 250 kts | 238° |
| 2026-04-30 13:18 | 26.26451 | 50.43836 | 3007 ft | 226 kts | 300° |
| 2026-04-30 13:18 | 26.27173 | 50.42295 | 3000 ft | 221 kts | 303° |
| 2026-04-30 13:19 | 26.27878 | 50.40829 | 3005 ft | 208 kts | 307° |
| 2026-04-30 13:19 | 26.28857 | 50.39826 | 3000 ft | 181 kts | 342° |
| 2026-04-30 13:19 | 26.30048 | 50.39793 | 3018 ft | 179 kts | 18° |
| 2026-04-30 13:19 | 26.31167 | 50.40454 | 3010 ft | 183 kts | 32° |
| 2026-04-30 13:20 | 26.32193 | 50.41297 | 3005 ft | 184 kts | 33° |
| 2026-04-30 13:20 | 26.33220 | 50.42148 | 3007 ft | 188 kts | 33° |
| 2026-04-30 13:20 | 26.34258 | 50.43003 | 3002 ft | 183 kts | 33° |
| 2026-04-30 13:20 | 26.35206 | 50.43961 | 3005 ft | 185 kts | 44° |
| 2026-04-30 13:21 | 26.35939 | 50.45159 | 3007 ft | 193 kts | 61° |
| 2026-04-30 13:21 | 26.36133 | 50.46671 | 2998 ft | 205 kts | 94° |
| 2026-04-30 13:21 | 26.35683 | 50.48214 | 2834 ft | 214 kts | 111° |
| 2026-04-30 13:22 | 26.34128 | 50.51087 | 2250 ft | 217 kts | 112° |
| 2026-04-30 13:22 | 26.33780 | 50.52635 | 2061 ft | 205 kts | 87° |
| 2026-04-30 13:22 | 26.33369 | 50.55988 | 2803 ft | 225 kts | 93° |
| 2026-04-30 13:23 | 26.33138 | 50.57719 | 2967 ft | 228 kts | 93° |
| 2026-04-30 13:23 | 26.32690 | 50.61177 | 3001 ft | 225 kts | 92° |
| 2026-04-30 13:24 | 26.32220 | 50.64672 | 3003 ft | 233 kts | 93° |
| 2026-04-30 13:24 | 26.31746 | 50.68516 | 3001 ft | 254 kts | 93° |
| 2026-04-30 13:25 | 26.31251 | 50.72400 | 3004 ft | 254 kts | 93° |
| 2026-04-30 13:25 | 26.30852 | 50.76271 | 3005 ft | 251 kts | 85° |
| 2026-04-30 13:26 | 26.31023 | 50.82061 | 3005 ft | 253 kts | 83° |
| 2026-04-30 13:26 | 26.31073 | 50.85923 | 3001 ft | 254 kts | 96° |
| 2026-04-30 13:27 | 26.29211 | 50.89358 | 3001 ft | 266 kts | 135° |
| 2026-04-30 13:28 | 26.24118 | 50.89555 | 3000 ft | 250 kts | 213° |
| 2026-04-30 13:28 | 26.21223 | 50.87730 | 3003 ft | 240 kts | 213° |
| 2026-04-30 13:28 | 26.19815 | 50.86831 | 2998 ft | 229 kts | 213° |
| 2026-04-30 13:29 | 26.17205 | 50.85093 | 2993 ft | 215 kts | 230° |
| 2026-04-30 13:29 | 26.16627 | 50.82187 | 2835 ft | 194 kts | 292° |
| 2026-04-30 13:30 | 26.18395 | 50.78495 | 2628 ft | 160 kts | 309° |
| 2026-04-30 13:31 | 26.19552 | 50.76492 | 2381 ft | 160 kts | 309° |
| 2026-04-30 13:31 | 26.21292 | 50.73455 | 1814 ft | 152 kts | 311° |
| 2026-04-30 13:32 | 26.22341 | 50.71625 | 1457 ft | 126 kts | 313° |
| 2026-04-30 13:32 | 26.23269 | 50.70021 | 1131 ft | 123 kts | 312° |
| 2026-04-30 13:33 | 26.24164 | 50.68451 | 804 ft | 119 kts | 307° |
| 2026-04-30 13:33 | 26.24986 | 50.66939 | 481 ft | 121 kts | 309° |
| 2026-04-30 13:34 | 26.25483 | 50.66167 | 348 ft | 121 kts | 309° |
| 2026-04-30 13:34 | 26.26779 | 50.63894 | 25 ft | 91 kts | 303° |
| 2026-04-30 13:35 | 26.27012 | 50.63488 | 23 ft | 32 kts | 308° |
| 2026-04-30 13:35 | 26.27195 | 50.63172 | 25 ft | 23 kts | 304° |
| 2026-04-30 13:36 | 26.27247 | 50.62858 | 27 ft | 7 kts | 268° |
| 2026-04-30 13:36 | 26.27232 | 50.62821 | 27 ft | 0 kts | 214° |
| 2026-04-30 13:36 | 26.27189 | 50.62832 | 26 ft | 8 kts | 127° |
| 2026-04-30 13:37 | 26.27144 | 50.62887 | 22 ft | 11 kts | 148° |
| 2026-04-30 13:37 | 26.27002 | 50.62937 | 21 ft | 11 kts | 119° |
| 2026-04-30 13:38 | 26.26911 | 50.63095 | 17 ft | 14 kts | 124° |
| 2026-04-30 13:38 | 26.26885 | 50.63128 | 18 ft | 2 kts | 173° |
| 2026-04-30 13:38 | 26.26872 | 50.63124 | 17 ft | 1 kts | 201° |
| 2026-04-30 13:39 | 26.26853 | 50.63114 | 18 ft | 5 kts | 205° |
| 2026-04-30 13:39 | 26.26806 | 50.63078 | 18 ft | 3 kts | 213° |
| 2026-04-30 13:40 | 26.26798 | 50.63073 | 18 ft | 0 kts | 212° |